Time;durP1;ratioP1;P1;durP2;ratioP2;P2;SDS_P1;SDS_P2;PMS_P1;PMS_P2;Temp;Humidity;BMP_temperature;BMP_pressure;BME280_temperature;BME280_humidity;BME280_pressure;Samples;Min_cycle;Max_cycle;Signal;HPM_P1;HPM_P2
2023/03/14 00:01:39;;;;;;;8.55;2.85;;;11.60;99.90;;;;;;5076791;28;20162;-64
2023/03/14 00:04:05;;;;;;;8.27;2.30;;;11.60;99.90;;;;;;5076318;28;20119;-64
2023/03/14 00:06:31;;;;;;;9.30;2.28;;;11.50;99.90;;;;;;5076668;28;20025;-64
2023/03/14 00:08:56;;;;;;;7.15;2.40;;;11.50;99.90;;;;;;5076323;28;20028;-64
2023/03/14 00:11:22;;;;;;;7.75;2.53;;;11.40;99.90;;;;;;5076523;28;20028;-65
2023/03/14 00:13:49;;;;;;;7.18;2.40;;;11.40;99.90;;;;;;5076522;28;20032;-65
2023/03/14 00:16:15;;;;;;;8.00;2.40;;;11.40;99.90;;;;;;5076546;28;20037;-64
2023/03/14 00:18:41;;;;;;;8.63;2.25;;;11.30;99.90;;;;;;5076527;28;20066;-64
2023/03/14 00:21:08;;;;;;;7.78;2.55;;;11.30;99.90;;;;;;5076455;28;20025;-64
2023/03/14 00:23:36;;;;;;;8.93;2.30;;;11.40;99.90;;;;;;5076006;28;20490;-64
2023/03/14 00:26:05;;;;;;;10.93;2.78;;;11.40;99.90;;;;;;5074929;28;20025;-64
2023/03/14 00:28:31;;;;;;;7.88;2.50;;;11.30;99.90;;;;;;5076368;28;20467;-64
2023/03/14 00:30:56;;;;;;;5.90;2.25;;;11.30;99.90;;;;;;5076153;28;20021;-64
2023/03/14 00:33:22;;;;;;;6.95;1.90;;;11.40;99.90;;;;;;5076241;28;20035;-65
2023/03/14 00:36:06;;;;;;;6.45;2.53;;;11.30;99.90;;;;;;5075878;28;20081;-65
2023/03/14 00:38:33;;;;;;;8.43;2.53;;;11.30;99.90;;;;;;5076214;28;20025;-64
2023/03/14 00:40:58;;;;;;;12.30;2.50;;;11.30;99.90;;;;;;5075918;28;20178;-64
2023/03/14 00:43:24;;;;;;;9.18;2.42;;;11.30;99.90;;;;;;5075834;28;20123;-65
2023/03/14 00:45:51;;;;;;;9.07;2.42;;;11.30;99.90;;;;;;5076104;28;20428;-64
2023/03/14 00:48:17;;;;;;;9.70;2.22;;;11.30;99.90;;;;;;5075995;28;20040;-64
2023/03/14 00:50:43;;;;;;;11.38;2.30;;;11.30;99.90;;;;;;5076051;28;20025;-64
2023/03/14 00:53:09;;;;;;;6.60;2.20;;;11.30;99.90;;;;;;5074537;28;20029;-64
2023/03/14 00:55:39;;;;;;;9.43;2.33;;;11.20;99.90;;;;;;5075360;28;20122;-64
2023/03/14 00:58:04;;;;;;;12.45;2.50;;;11.30;99.90;;;;;;5075820;28;20105;-64
2023/03/14 01:00:30;;;;;;;6.35;2.08;;;11.20;99.90;;;;;;5075406;28;20067;-64
2023/03/14 01:02:55;;;;;;;8.75;2.33;;;11.40;99.90;;;;;;5075583;28;20363;-64
2023/03/14 01:05:22;;;;;;;9.25;2.35;;;11.50;99.90;;;;;;5075558;28;20016;-64
2023/03/14 01:07:47;;;;;;;11.00;2.40;;;11.50;99.90;;;;;;5076026;28;20025;-64
2023/03/14 01:10:13;;;;;;;6.72;2.40;;;11.40;99.90;;;;;;5075345;28;20394;-64
2023/03/14 01:12:38;;;;;;;6.50;2.17;;;11.50;99.90;;;;;;5075476;28;20561;-64
2023/03/14 01:15:05;;;;;;;7.68;1.90;;;11.60;99.90;;;;;;5075523;28;20071;-64
2023/03/14 01:17:30;;;;;;;10.90;1.90;;;11.50;99.90;;;;;;5075279;28;20020;-65
2023/03/14 01:19:56;;;;;;;4.90;1.98;;;11.60;99.90;;;;;;5075447;28;20081;-64
2023/03/14 01:22:21;;;;;;;5.80;1.73;;;11.60;99.90;;;;;;5074988;28;20641;-65
2023/03/14 01:24:47;;;;;;;6.78;2.35;;;11.60;99.90;;;;;;5075178;28;20104;-64
2023/03/14 01:27:13;;;;;;;7.30;2.15;;;11.60;99.90;;;;;;5075290;28;20479;-64
2023/03/14 01:29:38;;;;;;;5.35;2.10;;;11.60;99.90;;;;;;5074785;28;20028;-64
2023/03/14 01:32:05;;;;;;;6.32;2.00;;;11.70;99.90;;;;;;5075126;28;20028;-64
2023/03/14 01:34:30;;;;;;;7.55;2.05;;;11.60;99.90;;;;;;5075097;28;20493;-64
2023/03/14 01:36:56;;;;;;;8.15;2.45;;;11.70;99.90;;;;;;5075160;28;20029;-64
2023/03/14 01:39:21;;;;;;;6.63;2.25;;;11.80;99.90;;;;;;5075131;28;20035;-64
2023/03/14 01:41:47;;;;;;;7.38;2.28;;;11.80;99.90;;;;;;5074759;28;20107;-63
2023/03/14 01:44:13;;;;;;;9.95;2.25;;;11.50;99.90;;;;;;5074861;28;20028;-63
2023/03/14 01:46:42;;;;;;;7.00;2.40;;;11.10;99.90;;;;;;5074811;28;20028;-63
2023/03/14 01:52:22;;;;;;;6.35;1.70;;;10.70;99.90;;;;;;5070588;28;20379;-64
2023/03/14 01:54:59;;;;;;;4.30;1.40;;;10.10;99.90;;;;;;5070744;28;20428;-64
2023/03/14 01:57:33;;;;;;;5.90;1.55;;;9.90;99.90;;;;;;5070567;28;20021;-64
2023/03/14 02:00:14;;;;;;;4.10;1.10;;;9.70;99.90;;;;;;5070600;28;20127;-64
2023/03/14 02:02:43;;;;;;;3.33;1.00;;;9.60;99.90;;;;;;5070311;28;20029;-64
2023/03/14 02:05:10;;;;;;;3.35;1.10;;;9.60;99.90;;;;;;5069354;28;20029;-64
2023/03/14 02:07:53;;;;;;;4.10;1.15;;;9.60;99.90;;;;;;5070604;28;20402;-64
2023/03/14 02:10:22;;;;;;;2.65;1.05;;;9.60;99.90;;;;;;5070286;28;20474;-64
2023/03/14 02:12:49;;;;;;;7.03;1.60;;;9.60;99.90;;;;;;5070426;28;20040;-64
2023/03/14 02:15:15;;;;;;;3.72;1.42;;;9.60;99.90;;;;;;5070271;28;20060;-65
2023/03/14 02:17:43;;;;;;;2.83;1.20;;;9.60;99.90;;;;;;5070245;28;20025;-64
2023/03/14 02:22:53;;;;;;;9.70;1.50;;;9.60;99.90;;;;;;5111189;27;20433;-63
2023/03/14 02:25:43;;;;;;;5.28;1.70;;;9.60;99.90;;;;;;5111326;28;20045;-63
2023/03/14 02:28:09;;;;;;;9.93;2.00;;;9.60;99.90;;;;;;5109965;28;20503;-63
2023/03/14 02:30:35;;;;;;;7.93;1.42;;;9.60;99.90;;;;;;5109970;28;20101;-63
2023/03/14 02:33:08;;;;;;;4.18;1.38;;;9.50;99.90;;;;;;5111164;28;20031;-63
2023/03/14 02:35:43;;;;;;;8.77;1.92;;;9.50;99.90;;;;;;5111140;28;20499;-63
2023/03/14 02:38:30;;;;;;;4.97;1.42;;;9.50;99.90;;;;;;5111018;28;20111;-64
2023/03/14 02:40:56;;;;;;;3.85;1.48;;;9.50;99.90;;;;;;5111053;28;20370;-63
2023/03/14 02:43:22;;;;;;;6.38;1.30;;;9.40;99.90;;;;;;5111023;28;20027;-64
2023/03/14 02:45:48;;;;;;;6.88;1.75;;;9.50;99.90;;;;;;5110902;28;20500;-64
2023/03/14 02:48:20;;;;;;;7.40;1.63;;;9.40;99.90;;;;;;5110553;28;20027;-64
2023/03/14 02:50:48;;;;;;;7.03;1.70;;;9.40;99.90;;;;;;5110861;28;20058;-64
2023/03/14 02:53:18;;;;;;;7.57;2.15;;;9.40;99.90;;;;;;5110435;28;20080;-64
2023/03/14 02:55:46;;;;;;;4.68;1.75;;;9.40;99.90;;;;;;5110682;28;20036;-64
2023/03/14 02:58:12;;;;;;;12.35;1.70;;;9.40;99.90;;;;;;5110803;28;20035;-63
2023/03/14 03:00:38;;;;;;;5.15;1.33;;;9.40;99.90;;;;;;5110391;28;20036;-63
2023/03/14 03:03:05;;;;;;;8.93;1.60;;;9.40;99.90;;;;;;5110379;28;20180;-63
2023/03/14 03:05:31;;;;;;;9.45;1.95;;;9.40;99.90;;;;;;5110480;28;20059;-63
2023/03/14 03:07:57;;;;;;;10.40;1.73;;;9.50;99.90;;;;;;5109257;28;20505;-64
2023/03/14 03:10:23;;;;;;;5.53;1.73;;;9.50;99.90;;;;;;5110452;28;20024;-64
2023/03/14 03:12:48;;;;;;;6.30;1.75;;;9.60;99.90;;;;;;5110424;28;20057;-63
2023/03/14 03:15:14;;;;;;;8.35;1.70;;;9.60;99.90;;;;;;5110204;28;20389;-63
2023/03/14 03:17:39;;;;;;;7.80;1.70;;;9.60;99.90;;;;;;5109855;28;20027;-64
2023/03/14 03:20:08;;;;;;;8.43;2.10;;;9.60;99.90;;;;;;5109990;28;20495;-64
2023/03/14 03:22:34;;;;;;;5.88;1.52;;;9.60;99.90;;;;;;5109563;28;20044;-64
2023/03/14 03:24:59;;;;;;;6.93;1.83;;;9.70;99.90;;;;;;5110185;28;20057;-64
2023/03/14 03:27:25;;;;;;;7.82;1.73;;;9.70;99.90;;;;;;5110102;28;20036;-64
2023/03/14 03:29:50;;;;;;;11.85;2.80;;;9.70;99.90;;;;;;5110314;28;20046;-64
2023/03/14 03:32:16;;;;;;;6.28;1.70;;;9.80;99.90;;;;;;5107502;28;20036;-65
2023/03/14 03:34:41;;;;;;;10.70;2.25;;;9.80;99.90;;;;;;5095835;28;20032;-64
2023/03/14 03:37:07;;;;;;;9.35;2.10;;;9.80;99.90;;;;;;5096150;28;20073;-64
2023/03/14 03:39:33;;;;;;;7.07;1.85;;;9.70;99.90;;;;;;5096260;28;20024;-64
2023/03/14 03:41:58;;;;;;;13.60;1.92;;;9.70;99.90;;;;;;5096010;28;20177;-64
2023/03/14 03:44:24;;;;;;;9.05;1.98;;;9.70;99.90;;;;;;5096301;28;20039;-64
2023/03/14 03:46:49;;;;;;;8.73;2.30;;;9.70;99.90;;;;;;5095908;28;20470;-64
2023/03/14 03:49:15;;;;;;;7.53;1.73;;;9.70;99.90;;;;;;5095901;28;20385;-64
2023/03/14 03:51:40;;;;;;;9.05;1.77;;;9.60;99.90;;;;;;5096002;28;20039;-64
2023/03/14 03:54:06;;;;;;;12.70;2.45;;;9.60;99.90;;;;;;5095816;28;20393;-64
2023/03/14 03:56:32;;;;;;;7.20;1.73;;;9.60;99.90;;;;;;5095972;28;20122;-64
2023/03/14 03:58:57;;;;;;;8.55;2.15;;;9.60;99.90;;;;;;5095737;28;20459;-64
2023/03/14 04:01:23;;;;;;;9.55;2.15;;;9.60;99.90;;;;;;5095749;28;20053;-64
2023/03/14 04:03:48;;;;;;;7.60;1.85;;;9.50;99.90;;;;;;5095789;28;20028;-64
2023/03/14 04:06:14;;;;;;;13.73;2.63;;;9.50;99.90;;;;;;5095368;28;20032;-64
2023/03/14 04:08:41;;;;;;;12.45;2.38;;;9.50;99.90;;;;;;5095522;28;20390;-64
2023/03/14 04:11:07;;;;;;;9.82;2.25;;;9.50;99.90;;;;;;5095435;28;20028;-64
2023/03/14 04:13:33;;;;;;;9.48;2.67;;;9.50;99.90;;;;;;5095633;28;20038;-64
2023/03/14 04:15:58;;;;;;;11.90;2.05;;;9.50;99.90;;;;;;5095641;28;20032;-63
2023/03/14 04:18:25;;;;;;;8.48;2.10;;;9.50;99.90;;;;;;5095258;28;20039;-63
2023/03/14 04:20:53;;;;;;;10.75;2.28;;;9.50;99.90;;;;;;5094919;28;20490;-63
2023/03/14 04:23:19;;;;;;;10.52;2.22;;;9.50;99.90;;;;;;5095301;28;20533;-63
2023/03/14 04:25:44;;;;;;;8.40;2.65;;;9.60;99.90;;;;;;5095327;28;20213;-63
2023/03/14 04:28:10;;;;;;;10.25;2.50;;;9.60;99.90;;;;;;5095361;28;20055;-63
2023/03/14 04:30:35;;;;;;;8.00;2.20;;;9.60;99.90;;;;;;5095272;28;20046;-63
2023/03/14 04:33:01;;;;;;;10.00;2.05;;;9.60;99.90;;;;;;5095116;28;20024;-63
2023/03/14 04:35:26;;;;;;;11.55;2.05;;;9.60;99.90;;;;;;5095048;28;20032;-63
2023/03/14 04:37:52;;;;;;;12.15;2.55;;;9.70;99.90;;;;;;5095073;28;20389;-64
2023/03/14 04:40:18;;;;;;;12.70;2.35;;;9.70;99.90;;;;;;5095000;28;20031;-63
2023/03/14 04:42:43;;;;;;;10.43;2.00;;;9.80;99.90;;;;;;5094571;28;20038;-63
2023/03/14 04:45:09;;;;;;;8.73;2.50;;;9.90;99.90;;;;;;5094019;28;20071;-63
2023/03/14 04:47:35;;;;;;;9.52;2.22;;;9.90;99.90;;;;;;5094868;28;20032;-63
2023/03/14 04:50:01;;;;;;;11.57;2.28;;;9.90;99.90;;;;;;5094750;28;20110;-63
2023/03/14 04:52:27;;;;;;;9.50;2.08;;;9.90;99.90;;;;;;5094912;28;20136;-64
2023/03/14 04:54:52;;;;;;;9.90;2.15;;;9.90;99.90;;;;;;5094678;28;20028;-64
2023/03/14 04:57:18;;;;;;;6.25;1.77;;;9.80;99.90;;;;;;5094765;28;20023;-64
2023/03/14 04:59:43;;;;;;;6.15;1.77;;;9.80;99.90;;;;;;5094738;28;20055;-63
2023/03/14 05:02:09;;;;;;;10.85;1.88;;;9.80;99.90;;;;;;5094476;28;20478;-63
2023/03/14 05:04:35;;;;;;;7.50;1.35;;;9.80;99.90;;;;;;5094631;28;20107;-63
2023/03/14 05:07:00;;;;;;;4.47;1.08;;;9.90;99.90;;;;;;5094237;28;20024;-63
2023/03/14 05:09:26;;;;;;;3.67;1.40;;;9.80;99.90;;;;;;5094462;28;20027;-63
2023/03/14 05:11:51;;;;;;;6.05;1.35;;;9.70;99.90;;;;;;5094084;28;20032;-63
2023/03/14 05:14:17;;;;;;;5.47;1.10;;;9.60;99.90;;;;;;5094266;28;20032;-63
2023/03/14 05:16:43;;;;;;;2.60;0.90;;;9.60;99.90;;;;;;5094464;28;20085;-63
2023/03/14 05:19:09;;;;;;;7.03;1.10;;;9.50;99.90;;;;;;5093925;28;20027;-64
2023/03/14 05:21:35;;;;;;;5.38;1.27;;;9.40;99.90;;;;;;5093793;28;20054;-63
2023/03/14 05:24:00;;;;;;;2.03;0.80;;;9.20;99.90;;;;;;5094155;28;20107;-64
2023/03/14 05:26:26;;;;;;;2.70;1.02;;;9.10;99.90;;;;;;5094227;28;20111;-63
2023/03/14 05:28:51;;;;;;;5.32;1.00;;;9.00;99.90;;;;;;5094370;28;20366;-63
2023/03/14 05:31:17;;;;;;;3.47;1.17;;;8.90;99.90;;;;;;5094112;28;20024;-63
2023/03/14 05:33:42;;;;;;;3.65;1.58;;;8.80;99.90;;;;;;5094103;28;20040;-63
2023/03/14 05:36:08;;;;;;;4.30;1.00;;;8.80;99.90;;;;;;5093943;28;20031;-63
2023/03/14 05:38:33;;;;;;;2.55;0.85;;;8.70;99.90;;;;;;5093665;28;20142;-64
2023/03/14 05:40:59;;;;;;;1.27;0.75;;;8.70;99.90;;;;;;5093970;28;20028;-63
2023/03/14 05:43:24;;;;;;;2.33;0.88;;;8.70;99.90;;;;;;5093860;28;20024;-63
2023/03/14 05:45:50;;;;;;;2.05;0.98;;;8.60;99.90;;;;;;5093619;28;20497;-63
2023/03/14 05:48:16;;;;;;;2.33;0.80;;;8.60;99.90;;;;;;5093655;28;20039;-63
2023/03/14 05:50:42;;;;;;;11.55;6.45;;;8.60;99.90;;;;;;5093772;28;20016;-63
2023/03/14 05:53:08;;;;;;;3.60;0.90;;;8.60;99.90;;;;;;5093617;28;20094;-63
2023/03/14 05:55:33;;;;;;;2.55;0.95;;;8.60;99.90;;;;;;5093582;28;20031;-63
2023/03/14 05:57:59;;;;;;;4.57;0.90;;;8.60;99.90;;;;;;5093797;28;20500;-63
2023/03/14 06:00:25;;;;;;;1.67;1.50;;;8.50;99.90;;;;;;5093503;28;20063;-63
2023/03/14 06:02:50;;;;;;;2.63;1.40;;;8.50;99.90;;;;;;5093514;28;20032;-63
2023/03/14 06:05:16;;;;;;;1.98;0.90;;;8.50;99.90;;;;;;5093223;28;20024;-63
2023/03/14 06:07:41;;;;;;;3.60;1.00;;;8.50;99.90;;;;;;5093172;28;20032;-63
2023/03/14 06:10:07;;;;;;;3.22;1.02;;;8.50;99.90;;;;;;5093553;28;20024;-63
2023/03/14 06:12:33;;;;;;;2.42;1.10;;;8.50;99.90;;;;;;5093569;28;20024;-63
2023/03/14 06:14:59;;;;;;;2.58;0.90;;;8.50;99.90;;;;;;5093343;28;20054;-63
2023/03/14 06:17:24;;;;;;;1.67;0.80;;;8.50;99.90;;;;;;5093604;28;20090;-64
2023/03/14 06:19:50;;;;;;;4.05;0.95;;;8.40;99.90;;;;;;5093385;28;20049;-63
2023/03/14 06:22:15;;;;;;;2.17;0.93;;;8.40;99.90;;;;;;5092993;28;20130;-64
2023/03/14 06:24:41;;;;;;;4.28;1.20;;;8.40;99.90;;;;;;5093327;28;20036;-64
2023/03/14 06:27:07;;;;;;;3.33;1.35;;;8.30;99.90;;;;;;5093004;28;20016;-64
2023/03/14 06:29:32;;;;;;;5.90;1.20;;;8.30;99.90;;;;;;5093048;28;20024;-64
2023/03/14 06:31:58;;;;;;;5.28;1.50;;;8.30;99.90;;;;;;5093343;28;20032;-64
2023/03/14 06:34:23;;;;;;;3.47;2.15;;;8.30;99.90;;;;;;5093190;28;20043;-65
2023/03/14 06:36:49;;;;;;;3.38;2.60;;;8.30;99.90;;;;;;5093047;28;20031;-64
2023/03/14 06:39:14;;;;;;;3.05;1.77;;;8.40;99.90;;;;;;5093170;28;20036;-64
2023/03/14 06:41:40;;;;;;;4.63;1.33;;;8.40;99.90;;;;;;5092913;28;20038;-64
2023/03/14 06:44:05;;;;;;;2.88;1.40;;;8.40;99.90;;;;;;5093083;28;20024;-64
2023/03/14 06:46:31;;;;;;;5.40;1.65;;;8.50;99.90;;;;;;5093224;28;20024;-64
2023/03/14 06:48:57;;;;;;;3.25;1.33;;;8.50;99.90;;;;;;5093096;28;20024;-64
2023/03/14 06:51:22;;;;;;;5.13;2.67;;;8.60;99.90;;;;;;5093156;28;20056;-64
2023/03/14 06:53:48;;;;;;;4.32;1.90;;;8.70;99.90;;;;;;5093411;28;20097;-64
2023/03/14 06:56:13;;;;;;;5.88;2.35;;;8.70;99.90;;;;;;5093142;28;20051;-63
2023/03/14 06:58:39;;;;;;;2.92;1.40;;;8.70;99.90;;;;;;5092740;28;20028;-64
2023/03/14 07:01:05;;;;;;;5.05;1.40;;;8.70;99.90;;;;;;5092668;28;20089;-64
2023/03/14 07:03:30;;;;;;;3.42;1.90;;;8.70;99.90;;;;;;5093022;28;20115;-64
2023/03/14 07:05:56;;;;;;;3.63;1.90;;;8.70;99.90;;;;;;5093057;28;20020;-63
2023/03/14 07:08:21;;;;;;;4.35;2.10;;;8.80;99.90;;;;;;5094628;28;20020;-63
2023/03/14 07:10:47;;;;;;;6.28;2.38;;;8.80;99.90;;;;;;5096384;28;20130;-63
2023/03/14 07:13:13;;;;;;;5.88;2.47;;;8.80;99.90;;;;;;5096345;28;20020;-63
2023/03/14 07:15:38;;;;;;;8.68;3.90;;;8.90;99.90;;;;;;5096750;28;20020;-64
2023/03/14 07:18:04;;;;;;;7.78;3.88;;;8.90;99.90;;;;;;5096548;28;20020;-64
2023/03/14 07:20:32;;;;;;;13.45;4.45;;;9.10;99.90;;;;;;5095853;28;20048;-64
2023/03/14 07:22:59;;;;;;;8.20;4.35;;;9.10;99.90;;;;;;5096235;28;20028;-64
2023/03/14 07:25:25;;;;;;;7.10;2.80;;;9.20;99.90;;;;;;5096544;28;20566;-65
2023/03/14 07:27:50;;;;;;;7.18;3.13;;;9.30;99.90;;;;;;5096623;28;20029;-64
2023/03/14 07:30:16;;;;;;;9.05;3.10;;;9.40;99.90;;;;;;5076015;28;20028;-63
2023/03/14 07:32:42;;;;;;;9.07;2.50;;;9.40;99.90;;;;;;5076107;28;20037;-64
2023/03/14 07:35:08;;;;;;;4.28;2.33;;;9.50;99.90;;;;;;5075903;28;20021;-64
2023/03/14 07:37:33;;;;;;;2.78;2.30;;;9.50;99.90;;;;;;5076024;28;20032;-64
2023/03/14 07:39:59;;;;;;;7.75;2.55;;;9.70;99.90;;;;;;5076091;28;20032;-64
2023/03/14 07:42:24;;;;;;;5.78;2.33;;;9.70;99.90;;;;;;5075565;28;20123;-65
2023/03/14 07:44:50;;;;;;;4.32;1.90;;;9.80;99.90;;;;;;5075854;28;20024;-64
2023/03/14 07:47:15;;;;;;;6.72;2.10;;;9.80;99.90;;;;;;5075714;28;20027;-65
2023/03/14 07:49:41;;;;;;;3.40;1.98;;;9.80;99.90;;;;;;5075680;28;20034;-64
2023/03/14 07:52:06;;;;;;;4.28;2.28;;;9.80;99.90;;;;;;5075822;28;20106;-64
2023/03/14 07:54:32;;;;;;;4.18;2.05;;;9.90;99.90;;;;;;5075744;28;20389;-64
2023/03/14 07:57:00;;;;;;;5.55;1.83;;;9.90;99.90;;;;;;5075802;28;20028;-64
2023/03/14 07:59:26;;;;;;;3.95;2.22;;;9.90;99.90;;;;;;5074666;28;20024;-65
2023/03/14 08:01:52;;;;;;;5.63;1.90;;;9.90;99.90;;;;;;5080856;28;20032;-64
2023/03/14 08:04:18;;;;;;;3.22;1.92;;;9.90;99.90;;;;;;5072676;28;20492;-67
2023/03/14 08:06:43;;;;;;;4.32;2.35;;;10.00;99.90;;;;;;5074050;28;20024;-64
2023/03/14 08:09:09;;;;;;;4.13;1.85;;;10.10;99.90;;;;;;5074592;28;20084;-64
2023/03/14 08:11:35;;;;;;;6.72;2.10;;;10.10;99.90;;;;;;5075240;28;20071;-64
2023/03/14 08:14:00;;;;;;;3.58;1.80;;;10.20;99.90;;;;;;5074276;28;20033;-64
2023/03/14 08:16:26;;;;;;;4.93;2.00;;;10.20;99.90;;;;;;5075298;28;20544;-64
2023/03/14 08:18:51;;;;;;;2.53;1.92;;;10.20;99.90;;;;;;5074359;28;20032;-64
2023/03/14 08:21:17;;;;;;;3.30;2.08;;;10.20;99.90;;;;;;5074541;28;20068;-64
2023/03/14 08:23:42;;;;;;;2.10;2.00;;;10.30;99.90;;;;;;5064545;28;20104;-64
2023/03/14 08:26:08;;;;;;;3.42;2.22;;;10.30;99.90;;;;;;5055059;28;20033;-64
2023/03/14 08:28:33;;;;;;;2.10;1.90;;;10.40;99.90;;;;;;5063216;28;20020;-64
2023/03/14 08:31:00;;;;;;;4.30;1.90;;;10.40;99.90;;;;;;5074467;28;20027;-64
2023/03/14 08:33:27;;;;;;;5.50;2.30;;;10.50;99.90;;;;;;5071717;28;20112;-65
2023/03/14 08:35:56;;;;;;;4.40;2.28;;;10.50;99.90;;;;;;5074943;28;20360;-64
2023/03/14 08:38:21;;;;;;;8.13;2.42;;;10.50;99.90;;;;;;5073439;28;20033;-67
2023/03/14 08:40:47;;;;;;;6.80;2.47;;;10.40;99.90;;;;;;5055616;28;20037;-64
2023/03/14 08:43:12;;;;;;;3.03;2.42;;;10.50;99.90;;;;;;5057454;28;20036;-64
2023/03/14 08:45:38;;;;;;;4.90;2.40;;;10.40;99.90;;;;;;5065297;28;20031;-64
2023/03/14 08:48:04;;;;;;;5.07;2.78;;;10.40;99.90;;;;;;5074470;28;20245;-64
2023/03/14 08:50:30;;;;;;;5.70;3.85;;;10.50;99.90;;;;;;5074512;28;20399;-64
2023/03/14 08:52:59;;;;;;;3.85;2.65;;;10.40;99.90;;;;;;5074460;28;20108;-65
2023/03/14 08:55:27;;;;;;;3.28;2.75;;;10.50;99.90;;;;;;5082351;28;20460;-64
2023/03/14 08:57:52;;;;;;;4.25;3.10;;;10.50;99.90;;;;;;5094689;28;20389;-64
2023/03/14 09:00:19;;;;;;;4.43;2.38;;;10.40;99.90;;;;;;5094618;28;20028;-64
2023/03/14 09:02:44;;;;;;;3.28;2.38;;;10.40;99.90;;;;;;5091342;28;20028;-63
2023/03/14 09:05:10;;;;;;;7.88;4.25;;;10.30;99.90;;;;;;5074326;28;20035;-64
2023/03/14 09:07:36;;;;;;;19.60;14.98;;;10.40;99.90;;;;;;5074327;28;20028;-64
2023/03/14 09:10:03;;;;;;;16.45;11.05;;;10.40;99.90;;;;;;5074219;28;20021;-64
2023/03/14 09:12:28;;;;;;;4.65;3.10;;;10.50;99.90;;;;;;5074301;28;20031;-64
2023/03/14 09:14:54;;;;;;;5.18;2.83;;;10.50;99.90;;;;;;5072766;28;20227;-64
2023/03/14 09:17:19;;;;;;;12.43;9.85;;;10.40;99.90;;;;;;5073970;28;20066;-64
2023/03/14 09:19:45;;;;;;;13.90;9.93;;;10.40;99.90;;;;;;5073649;28;20032;-64
2023/03/14 09:22:10;;;;;;;7.80;5.20;;;10.40;99.90;;;;;;5073424;28;20049;-64
2023/03/14 09:24:36;;;;;;;5.53;3.78;;;10.40;99.90;;;;;;5073822;28;20048;-64
2023/03/14 09:27:01;;;;;;;5.03;4.07;;;10.60;99.90;;;;;;5073482;28;20474;-64
2023/03/14 09:29:27;;;;;;;6.00;3.20;;;10.70;99.90;;;;;;5074103;28;20028;-64
2023/03/14 09:31:53;;;;;;;5.82;5.22;;;10.70;99.90;;;;;;5073144;28;20032;-64
2023/03/14 09:34:18;;;;;;;6.75;4.75;;;10.80;99.90;;;;;;5073591;28;20052;-64
2023/03/14 09:36:44;;;;;;;4.80;3.53;;;11.10;99.90;;;;;;5073178;28;20021;-64
2023/03/14 09:39:11;;;;;;;7.72;6.53;;;11.20;99.90;;;;;;5073738;28;20513;-64
2023/03/14 09:41:40;;;;;;;7.07;5.82;;;11.10;99.90;;;;;;5073462;28;20509;-64
2023/03/14 09:44:15;;;;;;;8.70;7.60;;;10.90;99.90;;;;;;5073690;28;20020;-64
2023/03/14 09:46:44;;;;;;;13.63;10.82;;;10.70;99.90;;;;;;5083761;28;20103;-64
2023/03/14 09:49:16;;;;;;;17.90;11.98;;;10.60;99.90;;;;;;5093372;28;20027;-64
2023/03/14 09:51:43;;;;;;;24.63;17.35;;;10.50;99.90;;;;;;5093666;28;20108;-64
2023/03/14 09:54:25;;;;;;;25.55;20.85;;;10.20;99.90;;;;;;5062947;28;20365;-64
2023/03/14 09:56:51;;;;;;;8.25;7.30;;;10.10;99.90;;;;;;5059454;28;20031;-64
2023/03/14 09:59:17;;;;;;;8.85;5.75;;;10.10;99.90;;;;;;5072987;28;20036;-63
2023/03/14 10:01:43;;;;;;;4.78;4.25;;;10.00;99.90;;;;;;5073168;28;20082;-64
2023/03/14 10:04:17;;;;;;;5.47;3.20;;;9.80;99.90;;;;;;5073627;28;20020;-64
2023/03/14 10:06:42;;;;;;;4.50;2.40;;;9.70;99.90;;;;;;5073182;28;20024;-63
2023/03/14 10:09:15;;;;;;;5.90;2.75;;;9.60;99.90;;;;;;5073255;28;20036;-64
2023/03/14 10:11:40;;;;;;;6.07;3.78;;;9.40;99.90;;;;;;5073329;28;20056;-64
2023/03/14 10:14:10;;;;;;;4.78;3.03;;;9.50;99.90;;;;;;5073209;28;20059;-64
2023/03/14 10:16:40;;;;;;;1.90;1.50;;;9.40;99.90;;;;;;5072718;28;20440;-65
2023/03/14 10:19:11;;;;;;;2.58;1.17;;;9.20;99.90;;;;;;5073298;28;20112;-65
2023/03/14 10:21:42;;;;;;;0.70;0.70;;;9.10;99.90;;;;;;5090633;28;20123;-65
2023/03/14 10:24:17;;;;;;;2.70;1.15;;;9.00;99.90;;;;;;5093356;28;20021;-65
2023/03/14 10:26:43;;;;;;;2.75;1.10;;;8.90;99.90;;;;;;5093136;28;20020;-65
2023/03/14 10:29:12;;;;;;;1.23;0.90;;;8.90;99.90;;;;;;5093279;28;20024;-64
2023/03/14 10:31:54;;;;;;;0.63;0.63;;;8.90;99.90;;;;;;5093346;28;20118;-65
2023/03/14 10:34:31;;;;;;;0.77;0.68;;;8.70;99.90;;;;;;5092954;28;20031;-65
2023/03/14 10:37:03;;;;;;;2.38;0.80;;;8.60;99.90;;;;;;5092341;28;20036;-65
2023/03/14 10:39:50;;;;;;;0.65;0.50;;;8.50;99.90;;;;;;5093075;28;20481;-65
2023/03/14 10:42:33;;;;;;;0.93;0.50;;;8.50;99.90;;;;;;5092838;28;20028;-66
2023/03/14 10:45:02;;;;;;;1.65;0.60;;;8.50;99.90;;;;;;5097331;28;20390;-65
2023/03/14 10:47:28;;;;;;;1.35;0.68;;;8.40;99.90;;;;;;5097407;28;20089;-65
2023/03/14 10:49:54;;;;;;;1.73;1.00;;;8.40;99.90;;;;;;5096754;28;20052;-65
2023/03/14 10:52:30;;;;;;;1.38;0.93;;;8.40;99.90;;;;;;5083722;28;20028;-65
2023/03/14 10:54:59;;;;;;;0.68;0.65;;;8.30;99.90;;;;;;5077554;28;20033;-65
2023/03/14 10:57:25;;;;;;;2.17;0.90;;;8.30;99.90;;;;;;5076998;28;20223;-65
2023/03/14 10:59:53;;;;;;;0.88;0.73;;;8.20;99.90;;;;;;5076706;28;20225;-65
2023/03/14 11:05:24;;;;;;;1.10;0.70;;;8.00;99.90;;;;;;5090827;28;20431;-65
2023/03/14 11:07:53;;;;;;;0.85;0.50;;;7.80;99.90;;;;;;5090588;28;20024;-65
2023/03/14 11:10:29;;;;;;;1.77;0.60;;;7.70;99.90;;;;;;5090664;28;20059;-65
2023/03/14 11:13:16;;;;;;;1.23;0.75;;;7.60;99.90;;;;;;5070105;28;20045;-66
2023/03/14 11:15:53;;;;;;;0.50;0.50;;;7.30;99.90;;;;;;5070407;28;20025;-66
2023/03/14 11:18:44;;;;;;;1.08;0.70;;;7.30;99.90;;;;;;5070320;28;20029;-65
2023/03/14 11:24:28;;;;;;;2.55;0.90;;;7.00;99.90;;;;;;5070419;28;20391;-65
2023/03/14 11:27:16;;;;;;;1.25;1.15;;;6.90;99.90;;;;;;5070379;28;20043;-65
2023/03/14 11:30:09;;;;;;;1.90;1.10;;;6.80;99.90;;;;;;5088846;28;20078;-65
2023/03/14 11:35:44;;;;;;;4.32;1.50;;;6.70;99.90;;;;;;5111104;27;20731;-65
2023/03/14 11:38:44;;;;;;;1.42;1.20;;;6.80;99.90;;;;;;5098414;28;20036;-66
2023/03/14 11:41:15;;;;;;;4.07;1.50;;;6.90;99.90;;;;;;5091368;28;20478;-65
2023/03/14 11:43:45;;;;;;;3.90;1.30;;;6.60;99.90;;;;;;5110665;28;20097;-65
2023/03/14 11:46:21;;;;;;;1.63;1.25;;;6.50;99.90;;;;;;5109974;28;20036;-66
2023/03/14 11:49:03;;;;;;;2.50;1.10;;;6.40;99.90;;;;;;5110922;28;20031;-66
2023/03/14 11:51:36;;;;;;;3.72;1.10;;;6.30;99.90;;;;;;5109887;28;20024;-66
2023/03/14 11:54:28;;;;;;;4.85;1.00;;;6.50;99.90;;;;;;5110668;28;20110;-65
2023/03/14 11:57:18;;;;;;;3.55;1.30;;;6.60;99.90;;;;;;5109643;28;20031;-66
2023/03/14 11:59:57;;;;;;;5.85;1.17;;;6.80;99.90;;;;;;5110750;28;20478;-66
2023/03/14 12:02:52;;;;;;;6.00;1.10;;;6.90;99.90;;;;;;5101507;28;20028;-66
2023/03/14 12:05:57;;;;;;;4.03;0.98;;;6.90;99.90;;;;;;5109684;28;20032;-66
2023/03/14 12:09:03;;;;;;;1.95;0.85;;;6.90;99.90;;;;;;5094383;28;20485;-66
2023/03/14 12:11:56;;;;;;;5.05;1.10;;;6.70;99.90;;;;;;5106450;28;20043;-67
2023/03/14 12:14:44;;;;;;;3.65;1.23;;;6.70;99.90;;;;;;5107770;28;20435;-67
2023/03/14 12:20:21;;;;;;;5.28;2.13;;;6.40;99.90;;;;;;5111867;27;20384;-66
2023/03/14 12:22:51;;;;;;;5.13;2.30;;;6.40;99.90;;;;;;5111093;28;20024;-65
2023/03/14 12:25:28;;;;;;;5.15;2.88;;;6.40;99.90;;;;;;5111146;28;20034;-65
2023/03/14 12:33:28;;;;;;;6.75;3.15;;;6.40;99.90;;;;;;5073248;28;20390;-65
2023/03/14 12:36:00;;;;;;;8.40;3.22;;;7.00;99.90;;;;;;5086824;28;20080;-65
2023/03/14 12:38:43;;;;;;;8.20;2.63;;;7.20;99.90;;;;;;5070462;28;20032;-65
2023/03/14 12:41:34;;;;;;;3.63;2.40;;;7.10;99.90;;;;;;5070642;28;20035;-66
2023/03/14 12:44:40;;;;;;;7.47;2.45;;;7.40;99.90;;;;;;5070412;28;20021;-66
2023/03/14 12:47:21;;;;;;;9.43;2.53;;;7.40;99.90;;;;;;5070403;28;20039;-65
2023/03/14 12:49:52;;;;;;;10.52;2.63;;;7.60;99.90;;;;;;5070124;28;20467;-65
2023/03/14 12:52:42;;;;;;;6.18;2.50;;;7.40;99.90;;;;;;5070098;28;20035;-65
2023/03/14 12:55:17;;;;;;;7.93;2.38;;;7.30;99.90;;;;;;5069889;28;20028;-65
2023/03/14 12:57:56;;;;;;;7.53;2.28;;;7.50;99.90;;;;;;5070143;28;20021;-65
2023/03/14 13:00:29;;;;;;;12.55;2.70;;;7.60;99.90;;;;;;5070082;28;20025;-65
2023/03/14 13:05:59;;;;;;;15.07;2.30;;;7.40;99.90;;;;;;5090810;28;20303;-64
2023/03/14 13:08:42;;;;;;;18.42;1.95;;;7.00;99.90;;;;;;5090971;28;20433;-65
2023/03/14 13:11:12;;;;;;;11.75;2.10;;;7.10;99.90;;;;;;5104517;28;20020;-65
2023/03/14 13:13:47;;;;;;;11.57;2.35;;;7.10;99.90;;;;;;5110976;28;20028;-64
2023/03/14 13:16:19;;;;;;;35.30;7.60;;;6.90;99.90;;;;;;5110911;28;20021;-63
2023/03/14 13:18:47;;;;;;;22.60;5.20;;;6.80;99.90;;;;;;5103959;28;20032;-63
2023/03/14 13:21:23;;;;;;;15.88;3.47;;;6.90;99.90;;;;;;5085583;28;20028;-63
2023/03/14 13:24:25;;;;;;;14.80;2.65;;;6.90;99.90;;;;;;5074934;28;20043;-63
2023/03/14 13:26:54;;;;;;;17.38;3.15;;;6.80;99.90;;;;;;5090430;28;20028;-63
2023/03/14 13:29:25;;;;;;;16.85;2.65;;;6.90;99.90;;;;;;5086845;28;20066;-63